Hauptseite
METAR-TAF:

METAR-TAF

Flughäfen :

Flughafen Bagdad

Bagdad, Irak

Breite: 33-15-45N, Länge: 44-14-04E, Höhe: 35 m

Beobachtung

Neuester Wetterbericht von vor 28 Minuten, um 11:00 UTC
Wind 8 kt aus Nordwest, variierte zwischen West und Nord
Temperatur 14°C
Luftfeuchtigkeit 41%
Luftdruck 1020 hPa
Sichtweite 10 km oder mehr
Aufgelockert bewölkt in der Höhe von 3500 ft

METAR: ORBI 221100Z 31008KT 270V350 9999 SCT035 14/01 Q1020 NOSIG

Zeit: 14:28 (11:28 UTC)

Prognose

Neuester Wetterbericht von vor 7 Stunden und 28 Minuten, um 04:00 UTC
Gültige Prognose vom 22 um 06 UTC bis 23 um 06 UTC
Wind 6 kt aus Nordwest
Sichtweite: 8000 m
Übergehend zu
vom 22 um 09 UTC bis 22 um 11 UTC
Aufgelockert bewölkt in der Höhe von 3000 ft

TAF: ORBI 220400Z 2206/2306 32006KT 8000 NSC BECMG 2209/2211 SCT030

Wetterbeobachtungen und Prognosen von mehr als 4000 Flughäfen (METAR und TAF Bericht).

Die verfügbaren Stationen werden durch gelbe und rote Markierungen auf der Karte dargestellt.

Führen Sie die Maus auf sie, um den Namen der Station zu sehen.

Darauf klicken, um die Beobachtung von Wetterbeobachtungen und Prognosen zu sehen.

Um die Karte zu ändern : klicken Sie auf den grünen Tasten mit einem schwarzen Kreuz Zum Vergrößern, auf den grünen Button mit einem Gedankenstrich zu verkleinern, oder auf die grünen Pfeile für benachbarte Karten.


METAR-TAF: